Last 24 Hours

UH Manoa Atmospheric Sciences

15 Minute Data | Pacific/Honolulu
as of 10/26/21 11:03 PM HST
Station Date Time Temp (°F) RH (%) Dew Pt (°F) Wind Spd (mph) Wind Dir (°) Wind Gust (mph) Latest Rain (In) Solar Rad (W/m2) Heat Index (°F) Barometric Press (inHg) Daily Rain (In) Daily Min Temp (°F) Daily Max Temp (°F) Daily Max Wind (mph)
UH Manoa Atmospheric Sciences 10/26/21 2300 75.6 81 69.4 2.8 ENE | 63 5.3 0.00 0 75.6 30.11 0.00 75.0 83.7 20.2
UH Manoa Atmospheric Sciences 10/26/21 2245 75.8 81 69.4 3.5 ENE | 64 7.2 0.00 0 75.8 30.11 0.00 75.0 83.7 20.2
UH Manoa Atmospheric Sciences 10/26/21 2230 75.8 80 69.1 4.1 NE | 49 7.6 0.00 0 75.8 30.11 0.00 75.0 83.7 20.2
UH Manoa Atmospheric Sciences 10/26/21 2215 75.8 79 69.0 4.0 ENE | 70 9.0 0.00 0 75.8 30.11 0.00 75.0 83.7 20.2
UH Manoa Atmospheric Sciences 10/26/21 2200 76.2 79 69.2 4.9 NE | 53 7.7 0.00 0 76.2 30.11 0.00 75.0 83.7 20.2
UH Manoa Atmospheric Sciences 10/26/21 2145 76.4 78 69.2 4.6 NE | 45 9.3 0.00 0 76.4 30.11 0.00 75.0 83.7 20.2
UH Manoa Atmospheric Sciences 10/26/21 2130 76.4 78 68.9 4.8 ENE | 58 8.5 0.00 0 76.4 30.11 0.00 75.0 83.7 20.2
UH Manoa Atmospheric Sciences 10/26/21 2115 76.3 77 68.6 3.4 NE | 55 7.5 0.00 0 76.3 30.11 0.00 75.0 83.7 20.2
UH Manoa Atmospheric Sciences 10/26/21 2100 76.5 77 68.6 2.5 ENE | 58 5.6 0.00 0 76.5 30.11 0.00 75.0 83.7 20.2
UH Manoa Atmospheric Sciences 10/26/21 2045 76.8 76 68.9 4.0 ENE | 75 7.6 0.00 0 76.8 30.11 0.00 75.0 83.7 20.2
UH Manoa Atmospheric Sciences 10/26/21 2030 77.1 76 68.9 5.0 NE | 44 10.7 0.00 0 77.1 30.10 0.00 75.0 83.7 20.2
UH Manoa Atmospheric Sciences 10/26/21 2015 77.2 75 68.8 5.2 NE | 37 9.8 0.00 0 77.2 30.10 0.00 75.0 83.7 20.2
UH Manoa Atmospheric Sciences 10/26/21 2000 77.0 75 68.6 5.6 NE | 40 11.2 0.00 0 77.0 30.09 0.00 75.0 83.7 20.2
UH Manoa Atmospheric Sciences 10/26/21 1945 77.1 75 68.7 6.1 NE | 41 10.9 0.00 0 77.1 30.09 0.00 75.0 83.7 20.2
UH Manoa Atmospheric Sciences 10/26/21 1930 77.5 74 68.6 4.5 NE | 42 9.1 0.00 0 77.5 30.08 0.00 75.0 83.7 20.2
UH Manoa Atmospheric Sciences 10/26/21 1915 77.4 74 68.4 4.9 NE | 41 8.6 0.00 0 77.4 30.08 0.00 75.0 83.7 20.2
UH Manoa Atmospheric Sciences 10/26/21 1900 77.2 75 68.6 5.9 NNE | 33 12.1 0.00 0 77.2 30.07 0.00 75.0 83.7 20.2
UH Manoa Atmospheric Sciences 10/26/21 1845 77.3 75 68.7 7.4 NE | 34 12.2 0.00 0 77.3 30.06 0.00 75.0 83.7 20.2
UH Manoa Atmospheric Sciences 10/26/21 1830 77.4 75 68.9 8.1 NE | 38 13.8 0.00 0 77.4 30.06 0.00 75.0 83.7 20.2
UH Manoa Atmospheric Sciences 10/26/21 1815 77.7 74 68.7 7.7 NNE | 33 14.3 0.00 0 77.7 30.05 0.00 75.0 83.7 20.2
UH Manoa Atmospheric Sciences 10/26/21 1800 77.9 73 68.5 9.1 NNE | 32 16.5 0.00 4 77.9 30.05 0.00 75.0 83.7 20.2
UH Manoa Atmospheric Sciences 10/26/21 1745 78.4 72 68.6 10.7 NE | 37 18.3 0.00 16 78.4 30.05 0.00 75.0 83.7 20.2
UH Manoa Atmospheric Sciences 10/26/21 1730 79.0 71 68.8 6.8 NE | 34 12.8 0.00 25 79.0 30.04 0.00 75.0 83.7 20.2
UH Manoa Atmospheric Sciences 10/26/21 1715 79.4 70 68.7 7.7 NE | 35 16.3 0.00 94 79.4 30.04 0.00 75.0 83.7 20.2
UH Manoa Atmospheric Sciences 10/26/21 1700 79.9 68 68.5 8.0 NE | 38 15.8 0.00 201 81.1 30.04 0.00 75.0 83.7 20.2
UH Manoa Atmospheric Sciences 10/26/21 1645 80.5 66 68.3 5.9 NNE | 31 13.6 0.00 267 83.2 30.04 0.00 75.0 83.7 20.2
UH Manoa Atmospheric Sciences 10/26/21 1630 80.3 65 67.6 9.7 NE | 40 16.2 0.00 300 82.7 30.03 0.00 75.0 83.7 20.2
UH Manoa Atmospheric Sciences 10/26/21 1615 80.4 66 67.9 11.2 NE | 37 18.3 0.00 312 83.0 30.03 0.00 75.0 83.7 20.2
UH Manoa Atmospheric Sciences 10/26/21 1600 80.7 64 67.3 12.4 NE | 38 20.2 0.00 420 83.1 30.03 0.00 75.0 83.7 20.2
UH Manoa Atmospheric Sciences 10/26/21 1545 81.4 62 67.4 10.7 NE | 37 19.4 0.00 477 84.0 30.02 0.00 75.0 83.7 19.4
UH Manoa Atmospheric Sciences 10/26/21 1530 82.1 61 67.5 9.4 NE | 36 16.8 0.00 526 84.8 30.02 0.00 75.0 83.7 16.9
UH Manoa Atmospheric Sciences 10/26/21 1515 82.6 58 66.2 8.2 NE | 36 16.0 0.00 574 84.9 30.02 0.00 75.0 83.7 16.9
UH Manoa Atmospheric Sciences 10/26/21 1500 82.9 57 66.3 7.4 NNE | 33 16.2 0.00 620 85.2 30.02 0.00 75.0 83.7 16.9
UH Manoa Atmospheric Sciences 10/26/21 1445 82.8 54 64.5 8.9 NE | 41 14.8 0.00 662 84.4 30.02 0.00 75.0 83.7 16.9
UH Manoa Atmospheric Sciences 10/26/21 1430 83.1 56 66.0 6.5 NE | 36 14.3 0.00 702 85.3 30.02 0.00 75.0 83.7 16.9
UH Manoa Atmospheric Sciences 10/26/21 1415 82.3 58 66.3 8.0 NE | 38 13.7 0.00 742 84.6 30.03 0.00 75.0 83.2 16.9
UH Manoa Atmospheric Sciences 10/26/21 1400 82.6 59 66.9 7.5 NNE | 29 14.8 0.00 735 85.2 30.03 0.00 75.0 83.2 16.9
UH Manoa Atmospheric Sciences 10/26/21 1345 81.9 59 66.3 7.5 NNE | 31 14.1 0.00 583 84.2 30.04 0.00 75.0 83.2 16.9
UH Manoa Atmospheric Sciences 10/26/21 1330 82.0 60 67.0 7.2 NNE | 33 15.5 0.00 657 84.5 30.05 0.00 75.0 83.2 16.9
UH Manoa Atmospheric Sciences 10/26/21 1315 82.3 58 66.0 8.0 NE | 40 14.7 0.00 517 84.4 30.05 0.00 75.0 83.2 16.9
UH Manoa Atmospheric Sciences 10/26/21 1300 82.2 58 66.0 6.7 NNE | 32 14.8 0.00 625 84.3 30.06 0.00 75.0 83.2 16.9
UH Manoa Atmospheric Sciences 10/26/21 1245 81.9 59 66.1 5.9 NE | 38 13.6 0.00 529 84.1 30.07 0.00 75.0 83.2 16.9
UH Manoa Atmospheric Sciences 10/26/21 1230 81.5 60 66.5 5.9 NE | 51 12.2 0.00 434 83.8 30.08 0.00 75.0 82.6 16.9
UH Manoa Atmospheric Sciences 10/26/21 1215 81.3 62 67.0 8.1 NE | 35 12.7 0.00 619 83.7 30.08 0.00 75.0 82.6 16.9
UH Manoa Atmospheric Sciences 10/26/21 1200 81.3 62 66.9 7.6 NE | 39 14.4 0.00 608 83.7 30.09 0.00 75.0 82.6 16.9
UH Manoa Atmospheric Sciences 10/26/21 1145 81.8 61 67.2 4.9 NE | 51 12.2 0.00 426 84.4 30.09 0.00 75.0 82.6 16.9
UH Manoa Atmospheric Sciences 10/26/21 1130 81.2 62 67.0 4.9 NE | 56 13.5 0.00 540 83.6 30.10 0.00 75.0 82.2 16.9
UH Manoa Atmospheric Sciences 10/26/21 1115 81.3 61 66.7 6.0 NE | 54 13.1 0.00 508 83.6 30.10 0.00 75.0 82.2 16.9
UH Manoa Atmospheric Sciences 10/26/21 1100 81.4 61 66.6 5.3 ENE | 57 13.0 0.00 441 83.7 30.11 0.00 75.0 82.2 16.9
UH Manoa Atmospheric Sciences 10/26/21 1045 80.9 62 66.9 5.6 NE | 49 13.7 0.00 673 83.3 30.11 0.00 75.0 82.1 16.9
UH Manoa Atmospheric Sciences 10/26/21 1030 80.6 64 67.1 4.7 NE | 55 9.2 0.00 266 83.0 30.11 0.00 75.0 81.4 16.9
UH Manoa Atmospheric Sciences 10/26/21 1015 80.3 63 66.4 6.4 ENE | 59 13.5 0.00 423 82.5 30.11 0.00 75.0 80.9 16.9
UH Manoa Atmospheric Sciences 10/26/21 1000 80.0 64 66.9 4.7 ENE | 63 10.7 0.00 338 81.6 30.11 0.00 75.0 80.5 16.9
UH Manoa Atmospheric Sciences 10/26/21 0945 79.6 66 67.3 5.2 ENE | 61 10.9 0.00 337 79.9 30.12 0.00 75.0 80.2 16.9
UH Manoa Atmospheric Sciences 10/26/21 0930 79.3 67 67.3 5.0 ENE | 57 10.1 0.00 371 79.4 30.12 0.00 75.0 80.0 16.9
UH Manoa Atmospheric Sciences 10/26/21 0915 78.7 68 67.4 5.6 NE | 56 10.1 0.00 429 78.7 30.12 0.00 75.0 79.3 16.9
UH Manoa Atmospheric Sciences 10/26/21 0900 78.6 70 67.9 4.0 ENE | 62 8.8 0.00 272 78.6 30.12 0.00 75.0 79.2 16.9
UH Manoa Atmospheric Sciences 10/26/21 0845 78.0 71 67.9 5.7 ENE | 62 12.2 0.00 351 78.0 30.12 0.00 75.0 78.9 16.9
UH Manoa Atmospheric Sciences 10/26/21 0830 78.2 70 67.8 5.2 NE | 44 10.8 0.00 396 78.2 30.11 0.00 75.0 78.9 16.9
UH Manoa Atmospheric Sciences 10/26/21 0815 77.6 71 67.4 4.8 NE | 43 9.3 0.00 407 77.6 30.11 0.00 75.0 78.2 16.9
UH Manoa Atmospheric Sciences 10/26/21 0800 76.8 71 66.6 2.8 ENE | 64 5.4 0.00 187 76.8 30.11 0.00 75.0 77.4 16.9
UH Manoa Atmospheric Sciences 10/26/21 0745 76.4 71 66.2 4.0 ENE | 57 8.1 0.00 73 76.4 30.10 0.00 75.0 76.8 16.9
UH Manoa Atmospheric Sciences 10/26/21 0730 76.4 71 66.1 5.6 NE | 46 9.5 0.00 75 76.4 30.10 0.00 75.0 76.8 16.9
UH Manoa Atmospheric Sciences 10/26/21 0715 76.3 70 65.9 4.2 NE | 56 8.5 0.00 54 76.3 30.10 0.00 75.0 76.8 16.9
UH Manoa Atmospheric Sciences 10/26/21 0700 76.1 70 65.5 4.6 ENE | 64 8.4 0.00 25 76.1 30.10 0.00 75.0 76.8 16.9
UH Manoa Atmospheric Sciences 10/26/21 0645 76.1 69 65.3 4.6 ENE | 61 10.3 0.00 3 76.1 30.10 0.00 75.0 76.8 16.9
UH Manoa Atmospheric Sciences 10/26/21 0630 76.2 68 65.0 5.4 NE | 56 8.9 0.00 0 76.2 30.10 0.00 75.0 76.8 16.9
UH Manoa Atmospheric Sciences 10/26/21 0615 76.1 68 64.9 6.2 ENE | 57 11.6 0.00 0 76.1 30.09 0.00 75.0 76.8 16.9
UH Manoa Atmospheric Sciences 10/26/21 0600 76.0 68 64.7 6.0 ENE | 60 11.2 0.00 0 76.0 30.09 0.00 75.0 76.8 16.9
UH Manoa Atmospheric Sciences 10/26/21 0545 76.1 67 64.4 6.1 ENE | 72 11.4 0.00 0 76.1 30.09 0.00 75.0 76.8 16.9
UH Manoa Atmospheric Sciences 10/26/21 0530 76.0 71 65.8 4.8 ENE | 63 11.3 0.00 0 76.0 30.09 0.00 75.0 76.8 16.9
UH Manoa Atmospheric Sciences 10/26/21 0515 75.6 73 66.4 3.9 ENE | 71 9.1 0.00 0 75.6 30.08 0.00 75.0 76.8 16.9
UH Manoa Atmospheric Sciences 10/26/21 0500 75.3 73 66.2 2.2 ENE | 78 5.5 0.00 0 75.3 30.08 0.00 75.0 76.8 16.9
UH Manoa Atmospheric Sciences 10/26/21 0445 75.5 73 66.2 2.3 E | 80 4.7 0.00 0 75.5 30.08 0.00 75.3 76.8 16.9
UH Manoa Atmospheric Sciences 10/26/21 0430 75.5 72 65.9 3.7 ENE | 66 8.0 0.00 0 75.5 30.08 0.00 75.4 76.8 16.9
UH Manoa Atmospheric Sciences 10/26/21 0415 75.7 72 66.0 3.8 ENE | 58 8.8 0.00 0 75.7 30.08 0.00 75.5 76.8 16.9
UH Manoa Atmospheric Sciences 10/26/21 0400 75.8 73 66.4 4.1 ENE | 65 8.4 0.00 0 75.8 30.08 0.00 75.5 76.8 16.9
UH Manoa Atmospheric Sciences 10/26/21 0345 75.7 74 67.0 4.4 ENE | 70 8.8 0.00 0 75.7 30.08 0.00 75.5 76.8 16.9
UH Manoa Atmospheric Sciences 10/26/21 0330 75.8 75 67.4 4.2 ENE | 74 7.6 0.00 0 75.8 30.08 0.00 75.7 76.8 16.9
UH Manoa Atmospheric Sciences 10/26/21 0315 76.2 73 67.0 3.0 E | 82 7.1 0.00 0 76.2 30.08 0.00 75.8 76.8 16.9
UH Manoa Atmospheric Sciences 10/26/21 0300 76.4 72 66.6 3.1 ENE | 72 8.0 0.00 0 76.4 30.08 0.00 75.8 76.8 16.9
UH Manoa Atmospheric Sciences 10/26/21 0245 76.2 73 66.8 5.2 ENE | 74 15.7 0.00 0 76.2 30.09 0.00 75.8 76.8 16.9
UH Manoa Atmospheric Sciences 10/26/21 0230 76.2 73 66.8 2.4 E | 86 4.8 0.00 0 76.2 30.09 0.00 75.8 76.8 16.9
UH Manoa Atmospheric Sciences 10/26/21 0215 76.4 72 66.6 5.0 ENE | 71 11.2 0.00 0 76.4 30.09 0.00 75.8 76.8 16.9
UH Manoa Atmospheric Sciences 10/26/21 0200 76.1 72 66.5 4.9 NE | 55 16.9 0.00 0 76.1 30.10 0.00 75.8 76.8 16.9
UH Manoa Atmospheric Sciences 10/26/21 0145 76.2 71 66.3 5.1 ENE | 60 11.2 0.00 0 76.2 30.10 0.00 75.9 76.8 16.8
UH Manoa Atmospheric Sciences 10/26/21 0130 76.2 72 66.4 6.6 ENE | 67 16.8 0.00 0 76.2 30.10 0.00 76.0 76.8 16.8
UH Manoa Atmospheric Sciences 10/26/21 0115 76.1 72 66.6 5.1 ENE | 68 9.5 0.00 0 76.1 30.11 0.00 76.0 76.8 10.4
UH Manoa Atmospheric Sciences 10/26/21 0100 76.3 72 66.5 4.5 ENE | 61 7.9 0.00 0 76.3 30.11 0.00 76.0 76.8 10.4
UH Manoa Atmospheric Sciences 10/26/21 0045 76.3 72 66.5 4.0 NE | 56 8.0 0.00 0 76.3 30.12 0.00 76.0 76.8 10.4
UH Manoa Atmospheric Sciences 10/26/21 0030 76.3 71 66.4 2.8 ENE | 62 6.0 0.00 0 76.3 30.12 0.00 76.0 76.8 10.4
UH Manoa Atmospheric Sciences 10/26/21 0015 76.5 70 66.2 6.2 ENE | 61 10.4 0.00 0 76.5 30.12 0.00 76.4 76.8 10.4
UH Manoa Atmospheric Sciences 10/26/21 0000 76.4 72 66.7 4.5 ENE | 63 11.7 0.00 0 76.4 30.12 0.00 75.7 82.7 27.9
UH Manoa Atmospheric Sciences 10/25/21 2345 76.2 72 66.6 4.4 ENE | 66 9.9 0.00 0 76.2 30.12 0.00 75.7 82.7 27.9
UH Manoa Atmospheric Sciences 10/25/21 2330 76.0 73 66.5 3.1 ENE | 65 6.0 0.00 0 76.0 30.12 0.00 75.7 82.7 27.9
UH Manoa Atmospheric Sciences 10/25/21 2315 76.1 72 66.4 3.9 ENE | 65 8.3 0.00 0 76.1 30.13 0.00 75.7 82.7 27.9
UH Manoa Atmospheric Sciences 10/25/21 2300 76.0 72 66.3 4.4 ENE | 74 9.7 0.00 0 76.0 30.13 0.00 75.7 82.7 27.9
Max     83.1 81 69.4 12.4 - 20.2 0.00 742 85.3 30.13 0.00 76.4 83.7 27.9
Avg     78.1 69 67.1 5.6 - 11.2 0.00 184 78.8 30.08 - - - -
Min     75.3 54 64.4 2.2 - 4.7 0.00 0 75.3 30.02 0.00 75.0 76.8 10.4